createdAt,value
2018-04-19T00:01:40.517Z,3.68
2018-04-19T00:07:30.462Z,3.21
2018-04-19T00:13:20.659Z,3.46
2018-04-19T00:19:10.734Z,3.84
2018-04-19T00:25:00.852Z,3.75
2018-04-19T00:30:50.842Z,4.28
2018-04-19T00:36:41.196Z,4.29
2018-04-19T00:42:31.162Z,4.24
2018-04-19T00:48:21.499Z,4.08
2018-04-19T00:54:11.425Z,4.03
2018-04-19T01:00:01.734Z,3.74
2018-04-19T01:05:51.673Z,4.08
2018-04-19T01:11:42.017Z,3.61
2018-04-19T01:17:31.991Z,3.9
2018-04-19T01:23:22.294Z,4.44
2018-04-19T01:29:12.308Z,4
2018-04-19T01:35:02.631Z,4.47
2018-04-19T01:40:52.654Z,4.08
2018-04-19T01:46:42.830Z,3.61
2018-04-19T01:52:32.912Z,3.38
2018-04-19T01:58:23.078Z,3.76
2018-04-19T02:04:13.032Z,3.23
2018-04-19T02:10:03.258Z,4.18
2018-04-19T02:15:53.251Z,4.09
2018-04-19T02:21:43.413Z,3.97
2018-04-19T02:27:33.389Z,4.7
2018-04-19T02:33:23.581Z,4.38
2018-04-19T02:39:13.579Z,4.26
2018-04-19T02:50:53.795Z,4.53
2018-04-19T02:56:44.145Z,4.57
2018-04-19T03:08:24.474Z,3.8
2018-04-19T03:14:14.507Z,4
2018-04-19T03:20:04.608Z,3.81
2018-04-19T03:25:54.615Z,3.98
2018-04-19T03:31:46.150Z,3.97
2018-04-19T03:37:36.209Z,3.73
2018-04-19T03:43:27.763Z,4.07
2018-04-19T03:49:17.779Z,4.2
2018-04-19T03:55:07.911Z,3.93
2018-04-19T04:00:57.908Z,3.6
2018-04-19T04:06:48.086Z,3.81
2018-04-19T04:12:38.097Z,3.7
2018-04-19T04:18:28.255Z,3.73
2018-04-19T04:24:18.300Z,4.05
2018-04-19T04:30:08.811Z,3.28
2018-04-19T04:35:58.501Z,3.72
2018-04-19T04:41:48.661Z,3.6
2018-04-19T04:47:38.670Z,3.49
2018-04-19T04:53:29.042Z,3.66
2018-04-19T04:59:19.065Z,3.4
2018-04-19T05:05:09.151Z,3.66
2018-04-19T05:10:59.185Z,3.56
2018-04-19T05:16:49.344Z,3.51
2018-04-19T05:23:14.845Z,3.55
2018-04-19T05:28:29.582Z,3.63
2018-04-19T05:34:19.469Z,3.78
2018-04-19T05:40:09.692Z,3.55
2018-04-19T05:44:17.205Z,4.44
2018-04-19T05:50:07.294Z,3.59
2018-04-19T05:55:57.344Z,3.98
2018-04-19T06:01:47.413Z,3.46
2018-04-19T06:07:37.668Z,4.04
2018-04-19T06:13:27.633Z,3.41
2018-04-19T06:19:17.870Z,3.26
2018-04-19T06:25:07.776Z,3.78
2018-04-19T06:30:58.061Z,3.35
2018-04-19T06:36:48.008Z,3.41
2018-04-19T06:42:38.161Z,3.23
2018-04-19T06:48:28.175Z,3.71
2018-04-19T06:54:18.500Z,3.92
2018-04-19T07:00:08.533Z,4.19
2018-04-19T07:05:58.695Z,4.49
2018-04-19T07:11:48.670Z,3.87
2018-04-19T07:17:38.890Z,4.16
2018-04-19T07:23:28.903Z,4.18
2018-04-19T07:29:19.054Z,4.32
2018-04-19T07:35:09.140Z,4.88
2018-04-19T07:40:59.306Z,4.72
2018-04-19T07:46:49.349Z,4.58
2018-04-19T07:52:39.428Z,5.07
2018-04-19T07:58:29.490Z,4.35
2018-04-19T08:04:19.624Z,4.88
2018-04-19T08:10:09.596Z,5.18
2018-04-19T08:15:59.795Z,5.24
2018-04-19T08:21:49.816Z,4.94
2018-04-19T08:27:39.953Z,5.06
2018-04-19T08:33:29.923Z,5.24
2018-04-19T08:39:20.225Z,4.73
2018-04-19T08:45:10.231Z,4.88
2018-04-19T08:56:50.413Z,5.23
2018-04-19T09:02:40.597Z,4.79
2018-04-19T09:08:30.715Z,4.64
2018-04-19T09:14:22.221Z,4.43
2018-04-19T09:20:12.119Z,4.82
2018-04-19T09:26:02.207Z,4.77
2018-04-19T09:31:52.245Z,3.97
2018-04-19T09:37:42.558Z,4.17
2018-04-19T09:43:32.418Z,4.31
2018-04-19T09:49:22.716Z,4.42
2018-04-19T09:55:12.692Z,3.93
2018-04-19T10:01:03.032Z,4.56
2018-04-19T10:06:52.934Z,4.37
2018-04-19T10:12:43.102Z,4.44
2018-04-19T10:18:33.256Z,4.26
2018-04-19T10:24:23.273Z,4.32
2018-04-19T10:30:13.344Z,3.75
2018-04-19T10:41:53.552Z,7.03
2018-04-19T10:47:43.610Z,4.62
2018-04-19T10:53:33.585Z,4.51
2018-04-19T10:59:23.907Z,4.56
2018-04-19T11:11:04.039Z,4.48
2018-04-19T11:16:54.031Z,4.11
2018-04-19T11:22:44.239Z,5.01
2018-04-19T11:28:34.345Z,4.54
2018-04-19T11:34:24.657Z,4.31
2018-04-19T11:40:14.516Z,4.87
2018-04-19T11:46:04.556Z,3.81
2018-04-19T11:51:54.590Z,4.26
2018-04-19T11:57:46.230Z,3.83
2018-04-19T12:03:36.233Z,4.35
2018-04-19T12:09:26.311Z,11.07
2018-04-19T12:15:16.339Z,3.78
2018-04-19T12:21:07.913Z,4.39
2018-04-19T12:26:57.857Z,4.16
2018-04-19T12:32:48.047Z,3.61
2018-04-19T12:38:38.002Z,3.52
2018-04-19T12:44:28.214Z,3.49
2018-04-19T12:50:18.266Z,3.81
2018-04-19T12:56:08.420Z,4.03
2018-04-19T13:07:48.647Z,3.71
2018-04-19T13:13:38.688Z,4.04
2018-04-19T13:19:28.856Z,4.48
2018-04-19T13:25:18.825Z,7.77
2018-04-19T13:31:10.354Z,3.81
2018-04-19T13:37:00.370Z,3.58
2018-04-19T13:42:50.589Z,3.68
2018-04-19T13:48:40.663Z,3.84
2018-04-19T13:54:32.132Z,3.29
2018-04-19T14:00:22.143Z,3.16
2018-04-19T14:06:12.437Z,3.21
2018-04-19T14:12:02.373Z,3.54
2018-04-19T14:17:52.455Z,3.6
2018-04-19T14:23:42.464Z,3.58
2018-04-19T14:29:32.650Z,4.19
2018-04-19T14:35:22.642Z,3.66
2018-04-19T14:47:02.935Z,4.2
2018-04-19T14:52:53.094Z,3.13
2018-04-19T15:04:33.286Z,4.3
2018-04-19T15:10:23.306Z,3.87
2018-04-19T15:16:13.566Z,4.39
2018-04-19T15:22:03.537Z,3.85
2018-04-19T15:27:53.846Z,4.43
2018-04-19T15:33:43.715Z,5.23
2018-04-19T15:39:33.866Z,4.18
2018-04-19T15:45:23.948Z,5.16
2018-04-19T15:51:14.109Z,4.69
2018-04-19T15:57:04.115Z,4.71
2018-04-19T16:02:55.777Z,4.67
2018-04-19T16:08:45.665Z,4.19
2018-04-19T16:14:35.829Z,4.44
2018-04-19T16:20:25.880Z,4.77
2018-04-19T16:26:16.003Z,4.31
2018-04-19T16:32:06.005Z,4.73
2018-04-19T16:37:57.615Z,4.53
2018-04-19T16:43:47.574Z,4.53
2018-04-19T16:49:37.720Z,5.48
2018-04-19T16:55:27.730Z,4.21
2018-04-19T17:07:07.944Z,4.59
2018-04-19T17:12:58.129Z,4.63
2018-04-19T17:18:48.146Z,5.49
2018-04-19T17:24:38.314Z,5.46
2018-04-19T17:30:28.334Z,5.75
2018-04-19T17:36:18.486Z,5.49
2018-04-19T17:42:08.459Z,4.37
2018-04-19T17:47:58.699Z,5.02
2018-04-19T17:53:48.667Z,5.88
2018-04-19T17:59:38.962Z,4.33
2018-04-19T18:05:29.022Z,6.07
2018-04-19T18:11:19.241Z,5.84
2018-04-19T18:17:09.160Z,5.98
2018-04-19T18:22:59.527Z,6.04
2018-04-19T18:28:49.444Z,6.11
2018-04-19T18:34:39.576Z,6.78
2018-04-19T18:40:29.584Z,6.83
2018-04-19T18:46:19.789Z,6.58
2018-04-19T18:52:09.804Z,6.24
2018-04-19T18:58:00.035Z,7.62
2018-04-19T19:03:50.067Z,8.83
2018-04-19T19:09:40.335Z,11.7
2018-04-19T19:21:21.805Z,11.3
2018-04-19T19:27:11.828Z,12.4
2018-04-19T19:33:03.349Z,12.69
2018-04-19T19:38:53.444Z,12.08
2018-04-19T19:44:43.584Z,11.19
2018-04-19T19:50:33.590Z,10.51
2018-04-19T19:56:31.934Z,10.65
2018-04-19T20:02:22.642Z,10.69
2018-04-19T20:08:13.409Z,9.5
2018-04-19T20:14:04.036Z,8.42
2018-04-19T20:19:54.781Z,9.32
2018-04-19T20:25:45.500Z,8.6
2018-04-19T20:31:36.217Z,8.4
2018-04-19T20:37:26.978Z,8.56
2018-04-19T20:43:17.618Z,8.84
2018-04-19T20:49:08.298Z,8.88
2018-04-19T20:54:59.009Z,11.66
2018-04-19T21:00:49.744Z,11.64
2018-04-19T21:06:40.400Z,13.07
2018-04-19T21:12:31.149Z,19.05
2018-04-19T21:18:21.897Z,37.14
2018-04-19T21:24:12.517Z,44.73
2018-04-19T21:30:03.273Z,32.57
2018-04-19T21:35:53.939Z,33.5
2018-04-19T21:41:44.644Z,36.02
2018-04-19T21:47:35.340Z,37.3
2018-04-19T21:53:26.033Z,43.79
2018-04-19T21:59:16.808Z,43.4
2018-04-19T22:05:07.450Z,39.19
2018-04-19T22:10:58.114Z,30.85
2018-04-19T22:16:48.835Z,16.33
2018-04-19T22:22:39.530Z,10.7
2018-04-19T22:28:30.183Z,10.77
2018-04-19T22:34:20.975Z,11.62
2018-04-19T22:40:11.581Z,12.27
2018-04-19T22:46:02.453Z,11.09
2018-04-19T22:51:53.037Z,10.57
2018-04-19T22:57:43.658Z,9.54
2018-04-19T23:03:34.333Z,8.66
2018-04-19T23:09:25.036Z,9
2018-04-19T23:15:15.849Z,8.59
2018-04-19T23:21:06.442Z,7.22
2018-04-19T23:26:57.123Z,8.06
2018-04-19T23:32:47.870Z,7.41
2018-04-19T23:38:38.497Z,6.98
2018-04-19T23:44:29.161Z,7.23
2018-04-19T23:50:19.893Z,7.44
2018-04-19T23:56:10.565Z,7.75
